createdAt,value
2023-05-24T00:00:16.361Z,45.28
2023-05-24T00:03:07.252Z,45.34
2023-05-24T00:05:41.528Z,45.56
2023-05-24T00:08:12.005Z,45.40
2023-05-24T00:10:44.316Z,45.30
2023-05-24T00:13:16.372Z,45.23
2023-05-24T00:15:46.356Z,45.32
2023-05-24T00:18:16.804Z,45.28
2023-05-24T00:20:46.513Z,45.30
2023-05-24T00:23:16.611Z,45.37
2023-05-24T00:25:47.375Z,45.54
2023-05-24T00:28:16.183Z,45.29
2023-05-24T00:30:46.391Z,45.34
2023-05-24T00:33:17.631Z,45.23
2023-05-24T00:35:47.891Z,45.11
2023-05-24T00:38:19.272Z,45.17
2023-05-24T00:40:49.296Z,45.24
2023-05-24T00:43:19.513Z,45.16
2023-05-24T00:45:51.327Z,45.20
2023-05-24T00:48:24.125Z,45.38
2023-05-24T00:50:54.898Z,45.27
2023-05-24T00:53:24.740Z,45.20
2023-05-24T00:55:55.065Z,45.31
2023-05-24T00:58:27.564Z,45.38
2023-05-24T01:01:01.721Z,45.33
2023-05-24T01:03:31.559Z,45.45
2023-05-24T01:06:04.682Z,45.40
2023-05-24T01:08:42.940Z,45.39
2023-05-24T01:11:31.470Z,45.40
2023-05-24T01:14:20.765Z,45.59
2023-05-24T01:16:57.765Z,45.63
2023-05-24T01:19:45.724Z,45.49
2023-05-24T01:22:24.609Z,45.55
2023-05-24T01:24:54.004Z,45.52
2023-05-24T01:30:29.163Z,45.74
2023-05-24T01:32:58.414Z,45.70
2023-05-24T01:35:28.537Z,45.60
2023-05-24T01:37:57.373Z,45.89
2023-05-24T01:40:26.342Z,46.00
2023-05-24T01:43:23.243Z,45.97
2023-05-24T01:46:01.910Z,46.02
2023-05-24T01:48:43.270Z,46.12
2023-05-24T01:51:16.506Z,45.93
2023-05-24T01:53:47.391Z,46.22
2023-05-24T01:56:17.891Z,46.24
2023-05-24T01:58:48.827Z,46.46
2023-05-24T02:01:18.511Z,46.35
2023-05-24T02:03:49.473Z,46.36
2023-05-24T02:06:18.380Z,46.47
2023-05-24T02:08:48.902Z,46.47
2023-05-24T02:11:17.688Z,46.68
2023-05-24T02:13:49.007Z,46.51
2023-05-24T02:16:18.663Z,46.69
2023-05-24T02:18:50.966Z,46.79
2023-05-24T02:21:20.506Z,46.67
2023-05-24T02:23:52.201Z,46.81
2023-05-24T02:26:22.450Z,46.79
2023-05-24T02:28:53.339Z,46.89
2023-05-24T02:31:23.954Z,46.94
2023-05-24T02:33:52.912Z,46.96
2023-05-24T02:36:25.229Z,46.88
2023-05-24T02:38:54.409Z,46.99
2023-05-24T02:41:23.267Z,47.10
2023-05-24T02:43:53.451Z,47.15
2023-05-24T02:46:23.519Z,47.24
2023-05-24T02:48:53.760Z,47.28
2023-05-24T02:51:24.416Z,47.24
2023-05-24T02:53:53.349Z,47.32
2023-05-24T02:56:26.282Z,47.46
2023-05-24T02:58:56.811Z,47.56
2023-05-24T03:01:28.267Z,47.55
2023-05-24T03:03:59.487Z,47.60
2023-05-24T03:06:30.067Z,47.53
2023-05-24T03:08:59.814Z,47.77
2023-05-24T03:11:31.673Z,47.91
2023-05-24T03:14:00.753Z,47.84
2023-05-24T03:16:33.435Z,47.88
2023-05-24T03:19:03.783Z,47.95
2023-05-24T03:21:34.854Z,48.08
2023-05-24T03:24:08.339Z,48.10
2023-05-24T03:26:39.959Z,48.16
2023-05-24T03:29:09.704Z,48.27
2023-05-24T03:31:41.006Z,48.14
2023-05-24T03:34:12.166Z,48.10
2023-05-24T03:36:42.509Z,48.29
2023-05-24T03:39:11.780Z,48.27
2023-05-24T03:42:06.110Z,48.23
2023-05-24T03:44:35.293Z,48.35
2023-05-24T03:47:06.622Z,48.35
2023-05-24T03:49:35.902Z,48.26
2023-05-24T03:52:08.235Z,48.37
2023-05-24T03:54:37.478Z,48.39
2023-05-24T03:57:08.785Z,48.43
2023-05-24T03:59:41.089Z,48.40
2023-05-24T04:02:11.961Z,48.34
2023-05-24T04:04:41.364Z,48.35
2023-05-24T04:07:12.312Z,48.42
2023-05-24T04:09:43.075Z,48.47
2023-05-24T04:12:12.845Z,48.62
2023-05-24T04:14:43.451Z,48.58
2023-05-24T04:17:14.591Z,48.54
2023-05-24T04:19:47.166Z,48.59
2023-05-24T04:22:17.299Z,48.65
2023-05-24T04:24:47.969Z,48.73
2023-05-24T04:27:18.549Z,48.63
2023-05-24T04:29:50.212Z,48.77
2023-05-24T04:32:20.830Z,48.71
2023-05-24T04:34:52.830Z,48.85
2023-05-24T04:37:22.263Z,48.87
2023-05-24T04:39:53.642Z,48.76
2023-05-24T04:42:34.120Z,48.75
2023-05-24T04:45:04.828Z,48.57
2023-05-24T04:47:34.572Z,48.72
2023-05-24T04:50:03.946Z,48.68
2023-05-24T04:52:33.843Z,48.55
2023-05-24T04:55:06.341Z,48.57
2023-05-24T04:57:35.897Z,48.53
2023-05-24T05:00:08.575Z,48.38
2023-05-24T05:02:40.450Z,48.35
2023-05-24T05:05:10.880Z,48.42
2023-05-24T05:07:40.938Z,48.46
2023-05-24T05:10:10.105Z,48.33
2023-05-24T05:12:39.718Z,48.47
2023-05-24T05:15:09.345Z,48.44
2023-05-24T05:17:38.839Z,48.40
2023-05-24T05:20:10.224Z,48.33
2023-05-24T05:22:45.924Z,48.21
2023-05-24T05:25:18.464Z,48.07
2023-05-24T05:27:49.512Z,47.84
2023-05-24T05:30:21.563Z,47.81
2023-05-24T05:32:50.703Z,47.71
2023-05-24T05:35:23.266Z,47.57
2023-05-24T05:37:52.940Z,47.50
2023-05-24T05:40:23.479Z,47.38
2023-05-24T05:42:54.595Z,47.25
2023-05-24T05:45:25.146Z,47.37
2023-05-24T05:47:54.272Z,47.08
2023-05-24T05:50:24.942Z,47.13
2023-05-24T05:52:55.522Z,47.08
2023-05-24T05:55:26.288Z,47.04
2023-05-24T05:57:56.669Z,47.01
2023-05-24T06:00:25.499Z,47.06
2023-05-24T06:02:57.088Z,46.83
2023-05-24T06:05:26.776Z,46.97
2023-05-24T06:07:56.947Z,46.70
2023-05-24T06:10:26.222Z,46.88
2023-05-24T06:12:55.508Z,46.55
2023-05-24T06:15:25.962Z,46.56
2023-05-24T06:17:56.769Z,46.51
2023-05-24T06:20:27.141Z,46.45
2023-05-24T06:22:57.536Z,46.27
2023-05-24T06:25:27.912Z,46.19
2023-05-24T06:27:56.781Z,46.07
2023-05-24T06:30:27.138Z,46.04
2023-05-24T06:32:56.825Z,46.00
2023-05-24T06:35:29.310Z,46.10
2023-05-24T06:37:59.221Z,46.07
2023-05-24T06:40:31.192Z,45.97
2023-05-24T06:43:01.044Z,45.92
2023-05-24T06:45:29.942Z,45.70
2023-05-24T06:47:59.125Z,45.81
2023-05-24T06:50:28.585Z,45.63
2023-05-24T06:52:59.521Z,45.71
2023-05-24T06:55:29.098Z,45.47
2023-05-24T06:58:00.871Z,45.81
2023-05-24T07:00:31.374Z,45.42
2023-05-24T07:03:02.265Z,45.61
2023-05-24T07:05:31.860Z,45.58
2023-05-24T07:08:00.851Z,45.47
2023-05-24T07:10:30.112Z,45.17
2023-05-24T07:12:59.438Z,44.98
2023-05-24T07:15:28.823Z,44.76
2023-05-24T07:17:58.725Z,44.78
2023-05-24T07:20:28.822Z,44.68
2023-05-24T07:22:58.786Z,44.41
2023-05-24T07:25:30.683Z,44.27
2023-05-24T07:28:00.126Z,44.06
2023-05-24T07:30:46.490Z,43.95
2023-05-24T07:33:17.032Z,43.71
2023-05-24T07:35:51.781Z,44.00
2023-05-24T07:38:21.472Z,43.35
2023-05-24T07:40:50.355Z,43.10
2023-05-24T07:43:20.825Z,43.07
2023-05-24T07:45:49.729Z,43.40
2023-05-24T07:48:21.052Z,43.44
2023-05-24T07:50:50.462Z,43.42
2023-05-24T07:53:20.873Z,43.40
2023-05-24T07:55:51.174Z,42.99
2023-05-24T07:58:21.646Z,43.31
2023-05-24T08:00:50.823Z,43.21
2023-05-24T08:03:19.786Z,43.33
2023-05-24T08:05:49.212Z,43.06
2023-05-24T08:08:20.750Z,42.36
2023-05-24T08:10:49.511Z,42.32
2023-05-24T08:13:19.934Z,42.34
2023-05-24T08:15:52.299Z,42.24
2023-05-24T08:18:21.734Z,42.18
2023-05-24T08:20:52.826Z,42.05
2023-05-24T08:23:23.314Z,42.06
2023-05-24T08:25:53.447Z,42.04
2023-05-24T08:28:23.200Z,41.84
2023-05-24T08:30:52.447Z,41.72
2023-05-24T08:33:23.503Z,41.76
2023-05-24T08:35:52.815Z,41.52
2023-05-24T08:38:22.645Z,41.70
2023-05-24T08:40:51.714Z,41.64
2023-05-24T08:43:21.244Z,41.24
2023-05-24T08:45:51.954Z,41.30
2023-05-24T08:48:22.007Z,41.36
2023-05-24T08:50:51.597Z,41.33
2023-05-24T08:53:22.207Z,41.25
2023-05-24T08:55:56.338Z,41.27
2023-05-24T08:58:25.795Z,41.14
2023-05-24T09:00:54.910Z,40.80
2023-05-24T09:03:25.144Z,40.82
2023-05-24T09:05:55.662Z,41.05
2023-05-24T09:08:25.358Z,40.82
2023-05-24T09:10:56.434Z,40.65
2023-05-24T09:13:25.763Z,39.93
2023-05-24T09:15:55.342Z,40.14
2023-05-24T09:18:24.556Z,40.30
2023-05-24T09:20:53.852Z,39.69
2023-05-24T09:23:24.874Z,39.24
2023-05-24T09:25:54.187Z,38.72
2023-05-24T09:28:25.387Z,38.68
2023-05-24T09:31:07.867Z,38.29
2023-05-24T09:33:38.691Z,37.98
2023-05-24T09:36:09.718Z,38.08
2023-05-24T09:38:38.818Z,38.44
2023-05-24T09:41:15.575Z,37.44
2023-05-24T09:43:50.497Z,36.45
2023-05-24T09:46:22.051Z,36.61
2023-05-24T09:48:58.033Z,36.01
2023-05-24T09:51:28.469Z,35.63
2023-05-24T09:53:58.623Z,34.96
2023-05-24T09:56:27.954Z,34.49
2023-05-24T09:58:59.372Z,34.96
2023-05-24T10:01:28.955Z,34.37
2023-05-24T10:04:00.343Z,33.79
2023-05-24T10:06:30.405Z,32.94
2023-05-24T10:09:00.678Z,32.28
2023-05-24T10:11:29.895Z,32.46
2023-05-24T10:13:59.860Z,32.27
2023-05-24T10:16:29.153Z,31.65
2023-05-24T10:18:59.202Z,31.12
2023-05-24T10:21:29.956Z,31.27
2023-05-24T10:24:01.000Z,30.71
2023-05-24T10:26:32.507Z,30.83
2023-05-24T10:29:07.163Z,31.05
2023-05-24T10:31:39.732Z,31.51
2023-05-24T10:34:09.639Z,30.65
2023-05-24T10:36:40.913Z,30.90
2023-05-24T10:39:12.830Z,30.37
2023-05-24T10:41:43.228Z,30.58
2023-05-24T10:44:13.637Z,30.64
2023-05-24T10:47:00.852Z,30.77
2023-05-24T10:49:30.153Z,30.88
2023-05-24T10:52:09.107Z,30.66
2023-05-24T10:54:44.759Z,30.44
2023-05-24T10:57:24.820Z,30.58
2023-05-24T10:59:57.599Z,30.92
2023-05-24T11:02:36.011Z,30.97
2023-05-24T11:05:06.367Z,30.75
2023-05-24T11:07:43.419Z,30.67
2023-05-24T11:10:20.118Z,30.78
2023-05-24T11:12:58.043Z,31.54
2023-05-24T11:15:26.889Z,30.94
2023-05-24T11:18:14.234Z,30.67
2023-05-24T11:20:47.358Z,30.98
2023-05-24T11:23:17.443Z,30.52
2023-05-24T11:25:49.805Z,30.22
2023-05-24T11:28:19.512Z,29.62
2023-05-24T11:30:51.307Z,29.89
2023-05-24T11:33:21.148Z,29.97
2023-05-24T11:35:54.320Z,29.89
2023-05-24T11:38:25.069Z,29.71
2023-05-24T11:40:54.255Z,28.90
2023-05-24T11:43:23.189Z,28.81
2023-05-24T11:45:52.616Z,28.00
2023-05-24T11:48:22.239Z,27.85
2023-05-24T11:50:54.229Z,27.83
2023-05-24T11:53:23.202Z,27.14
2023-05-24T11:55:54.828Z,27.15
2023-05-24T11:58:26.137Z,27.30
2023-05-24T12:00:55.734Z,27.46
2023-05-24T12:03:28.143Z,27.01
2023-05-24T12:06:00.063Z,26.81
2023-05-24T12:08:30.213Z,27.18
2023-05-24T12:11:03.316Z,26.98
2023-05-24T12:13:34.165Z,27.06
2023-05-24T12:16:03.586Z,27.35
2023-05-24T12:18:35.460Z,27.45
2023-05-24T12:21:07.175Z,27.13
2023-05-24T12:23:36.252Z,27.57
2023-05-24T12:26:05.802Z,27.60
2023-05-24T12:28:39.578Z,27.23
2023-05-24T12:31:09.543Z,27.52
2023-05-24T12:33:39.984Z,27.64
2023-05-24T12:36:10.564Z,27.57
2023-05-24T12:38:40.723Z,27.49
2023-05-24T12:41:12.937Z,27.50
2023-05-24T12:43:44.886Z,27.57
2023-05-24T12:46:13.701Z,27.83
2023-05-24T12:48:44.521Z,27.79
2023-05-24T12:51:13.763Z,27.67
2023-05-24T12:53:43.736Z,27.72
2023-05-24T12:56:12.643Z,27.60
2023-05-24T12:58:41.894Z,27.66
2023-05-24T13:01:10.965Z,27.99
2023-05-24T13:03:41.018Z,27.71
2023-05-24T13:06:09.805Z,27.99
2023-05-24T13:08:40.759Z,27.75
2023-05-24T13:11:10.063Z,27.67
2023-05-24T13:13:42.346Z,27.44
2023-05-24T13:16:11.361Z,27.61
2023-05-24T13:18:41.351Z,27.88
2023-05-24T13:21:12.482Z,27.85
2023-05-24T13:23:45.631Z,27.82
2023-05-24T13:26:15.858Z,28.00
2023-05-24T13:29:07.603Z,27.88
2023-05-24T13:31:36.128Z,27.51
2023-05-24T13:34:06.745Z,27.74
2023-05-24T13:36:38.519Z,28.03
2023-05-24T13:41:45.368Z,27.92
2023-05-24T13:44:15.019Z,28.03
2023-05-24T13:46:44.863Z,28.06
2023-05-24T13:49:14.295Z,27.91
2023-05-24T13:51:44.686Z,28.07
2023-05-24T13:54:14.796Z,28.10
2023-05-24T13:56:45.234Z,27.94
2023-05-24T13:59:14.391Z,28.04
2023-05-24T14:01:46.067Z,27.61
2023-05-24T14:04:14.848Z,27.91
2023-05-24T14:06:43.732Z,27.69
2023-05-24T14:09:12.535Z,27.78
2023-05-24T14:11:41.694Z,28.09
2023-05-24T14:16:43.845Z,28.22
2023-05-24T14:19:16.500Z,28.39
2023-05-24T14:21:45.375Z,28.24
2023-05-24T14:24:14.213Z,28.26
2023-05-24T14:26:42.985Z,28.27
2023-05-24T14:29:13.670Z,28.12
2023-05-24T14:31:43.447Z,28.63
2023-05-24T14:34:12.645Z,28.78
2023-05-24T14:36:43.450Z,28.85
2023-05-24T14:39:12.320Z,28.55
2023-05-24T14:41:42.910Z,28.67
2023-05-24T14:44:13.235Z,28.48
2023-05-24T14:46:42.110Z,28.59
2023-05-24T14:49:14.066Z,28.23
2023-05-24T14:51:43.098Z,28.47
2023-05-24T14:54:13.388Z,28.77
2023-05-24T14:56:42.302Z,28.67
2023-05-24T14:59:11.107Z,28.70
2023-05-24T15:01:42.916Z,28.50
2023-05-24T15:04:11.838Z,28.85
2023-05-24T15:06:41.092Z,29.12
2023-05-24T15:09:10.314Z,29.38
2023-05-24T15:11:39.896Z,29.46
2023-05-24T15:14:09.885Z,29.54
2023-05-24T15:16:40.681Z,29.91
2023-05-24T15:19:11.114Z,29.93
2023-05-24T15:21:40.291Z,30.36
2023-05-24T15:24:09.565Z,30.23
2023-05-24T15:26:38.859Z,30.49
2023-05-24T15:29:07.693Z,30.59
2023-05-24T15:31:36.825Z,30.65
2023-05-24T15:34:06.336Z,31.02
2023-05-24T15:36:36.820Z,31.29
2023-05-24T15:39:08.548Z,31.21
2023-05-24T15:41:38.613Z,31.16
2023-05-24T15:44:11.492Z,30.88
2023-05-24T15:46:41.566Z,31.00
2023-05-24T15:49:11.077Z,31.15
2023-05-24T15:54:13.603Z,31.08
2023-05-24T15:56:44.036Z,31.28
2023-05-24T15:59:14.093Z,31.67
2023-05-24T16:01:44.100Z,32.03
2023-05-24T16:04:13.287Z,32.15
2023-05-24T16:06:42.528Z,32.19
2023-05-24T16:09:11.613Z,32.62
2023-05-24T16:11:42.018Z,32.61
2023-05-24T16:14:12.405Z,32.64
2023-05-24T16:16:43.202Z,32.64
2023-05-24T16:19:12.490Z,33.02
2023-05-24T16:21:45.299Z,33.08
2023-05-24T16:24:15.660Z,33.17
2023-05-24T16:26:46.901Z,33.46
2023-05-24T16:29:18.435Z,33.77
2023-05-24T16:31:49.997Z,33.72
2023-05-24T16:34:19.169Z,34.06
2023-05-24T16:36:51.751Z,34.31
2023-05-24T16:39:21.002Z,34.24
2023-05-24T16:41:50.184Z,34.34
2023-05-24T16:44:19.570Z,34.65
2023-05-24T16:46:48.839Z,35.05
2023-05-24T16:49:19.130Z,34.90
2023-05-24T16:51:48.739Z,35.31
2023-05-24T16:54:18.029Z,35.34
2023-05-24T16:56:48.326Z,35.51
2023-05-24T16:59:18.089Z,35.78
2023-05-24T17:01:49.970Z,36.20
2023-05-24T17:04:20.492Z,36.10
2023-05-24T17:06:51.050Z,36.50
2023-05-24T17:09:20.575Z,36.73
2023-05-24T17:11:52.050Z,36.78
2023-05-24T17:14:21.489Z,37.05
2023-05-24T17:16:50.224Z,37.42
2023-05-24T17:19:21.259Z,37.90
2023-05-24T17:21:51.594Z,38.19
2023-05-24T17:24:22.876Z,38.06
2023-05-24T17:26:53.056Z,38.36
2023-05-24T17:29:22.142Z,38.65
2023-05-24T17:31:51.843Z,39.02
2023-05-24T17:34:23.194Z,38.86
2023-05-24T17:36:59.231Z,39.26
2023-05-24T17:39:29.734Z,39.15
2023-05-24T17:42:00.365Z,39.39
2023-05-24T17:44:31.881Z,39.69
2023-05-24T17:47:05.364Z,40.10
2023-05-24T17:49:35.194Z,40.17
2023-05-24T17:52:07.497Z,40.58
2023-05-24T17:54:36.814Z,41.00
2023-05-24T17:57:08.056Z,41.14
2023-05-24T17:59:38.316Z,40.87
2023-05-24T18:02:08.920Z,41.40
2023-05-24T18:04:37.953Z,41.49
2023-05-24T18:07:07.791Z,41.87
2023-05-24T18:09:46.227Z,41.97
2023-05-24T18:12:15.964Z,42.30
2023-05-24T18:14:45.488Z,42.55
2023-05-24T18:17:15.351Z,43.18
2023-05-24T18:19:44.473Z,43.29
2023-05-24T18:22:14.364Z,43.07
2023-05-24T18:24:43.995Z,43.30
2023-05-24T18:27:13.975Z,43.90
2023-05-24T18:29:43.409Z,43.80
2023-05-24T18:32:13.145Z,43.80
2023-05-24T18:34:43.307Z,43.78
2023-05-24T18:37:13.898Z,44.03
2023-05-24T18:39:42.919Z,43.93
2023-05-24T18:42:13.012Z,44.05
2023-05-24T18:44:42.179Z,44.27
2023-05-24T18:47:12.366Z,44.42
2023-05-24T18:49:42.686Z,44.45
2023-05-24T18:52:12.216Z,44.62
2023-05-24T18:54:42.488Z,44.83
2023-05-24T18:57:12.894Z,45.06
2023-05-24T18:59:43.222Z,45.02
2023-05-24T19:02:13.827Z,45.51
2023-05-24T19:04:48.329Z,45.67
2023-05-24T19:07:17.786Z,45.76
2023-05-24T19:09:48.888Z,45.98
2023-05-24T19:12:19.359Z,45.94
2023-05-24T19:14:48.360Z,45.99
2023-05-24T19:17:17.984Z,46.17
2023-05-24T19:19:48.678Z,46.34
2023-05-24T19:22:19.196Z,46.25
2023-05-24T19:24:48.462Z,46.36
2023-05-24T19:27:19.110Z,46.42
2023-05-24T19:29:49.067Z,46.67
2023-05-24T19:32:18.725Z,47.22
2023-05-24T19:34:48.782Z,47.07
2023-05-24T19:37:21.368Z,47.06
2023-05-24T19:39:51.958Z,47.42
2023-05-24T19:42:21.442Z,47.38
2023-05-24T19:44:50.821Z,47.54
2023-05-24T19:47:22.128Z,47.65
2023-05-24T19:49:51.950Z,48.13
2023-05-24T19:52:22.152Z,48.11
2023-05-24T19:54:53.482Z,48.30
2023-05-24T19:57:23.282Z,48.17
2023-05-24T19:59:54.450Z,48.22
2023-05-24T20:02:23.893Z,48.37
2023-05-24T20:04:53.980Z,48.65
2023-05-24T20:07:24.054Z,48.77
2023-05-24T20:09:54.722Z,48.56
2023-05-24T20:12:23.673Z,48.60
2023-05-24T20:14:52.917Z,48.84
2023-05-24T20:17:26.363Z,48.88
2023-05-24T20:19:55.451Z,48.93
2023-05-24T20:22:25.481Z,49.15
2023-05-24T20:24:56.132Z,49.21
2023-05-24T20:27:27.641Z,49.60
2023-05-24T20:29:57.358Z,49.83
2023-05-24T20:32:29.384Z,49.80
2023-05-24T20:34:59.260Z,49.99
2023-05-24T20:37:33.015Z,50.37
2023-05-24T20:40:04.662Z,50.32
2023-05-24T20:42:34.437Z,50.00
2023-05-24T20:45:05.956Z,50.27
2023-05-24T20:47:35.502Z,50.57
2023-05-24T20:50:05.941Z,50.59
2023-05-24T20:52:34.944Z,50.50
2023-05-24T20:55:05.459Z,50.73
2023-05-24T20:57:34.522Z,50.89
2023-05-24T21:00:07.369Z,50.72
2023-05-24T21:02:37.851Z,50.89
2023-05-24T21:05:08.889Z,50.86
2023-05-24T21:07:38.451Z,50.97
2023-05-24T21:10:08.066Z,51.19
2023-05-24T21:12:37.171Z,51.18
2023-05-24T21:15:06.342Z,51.30
2023-05-24T21:17:36.398Z,51.35
2023-05-24T21:20:07.078Z,51.42
2023-05-24T21:22:36.141Z,51.55
2023-05-24T21:25:07.708Z,51.61
2023-05-24T21:27:40.009Z,51.71
2023-05-24T21:30:09.439Z,52.23
2023-05-24T21:32:39.038Z,52.06
2023-05-24T21:35:09.228Z,52.17
2023-05-24T21:37:38.638Z,52.30
2023-05-24T21:40:08.499Z,52.48
2023-05-24T21:42:38.670Z,52.55
2023-05-24T21:45:09.087Z,52.72
2023-05-24T21:47:38.793Z,52.77
2023-05-24T21:50:08.458Z,52.97
2023-05-24T21:52:37.885Z,53.10
2023-05-24T21:55:08.094Z,53.29
2023-05-24T21:57:38.579Z,53.54
2023-05-24T22:00:09.789Z,53.52
2023-05-24T22:02:38.739Z,53.56
2023-05-24T22:05:08.815Z,53.71
2023-05-24T22:07:40.394Z,53.89
2023-05-24T22:10:12.530Z,53.92
2023-05-24T22:12:43.757Z,53.81
2023-05-24T22:15:14.865Z,53.91
2023-05-24T22:17:45.587Z,53.84
2023-05-24T22:20:14.903Z,53.97
2023-05-24T22:22:53.873Z,54.12
2023-05-24T22:25:26.385Z,54.27
2023-05-24T22:27:59.788Z,54.49
2023-05-24T22:30:32.256Z,54.28
2023-05-24T22:33:01.653Z,54.48
2023-05-24T22:35:31.242Z,54.49
2023-05-24T22:38:03.723Z,54.69
2023-05-24T22:40:32.764Z,54.83
2023-05-24T22:43:01.723Z,55.05
2023-05-24T22:45:31.762Z,55.02
2023-05-24T22:48:03.787Z,55.16
2023-05-24T22:50:35.348Z,55.39
2023-05-24T22:53:04.673Z,55.43
2023-05-24T22:55:35.354Z,55.43
2023-05-24T22:58:06.569Z,55.56
2023-05-24T23:00:37.017Z,55.61
2023-05-24T23:03:08.247Z,55.56
2023-05-24T23:05:38.503Z,55.72
2023-05-24T23:08:13.322Z,55.68
2023-05-24T23:10:46.025Z,55.78
2023-05-24T23:13:19.518Z,55.84
2023-05-24T23:15:51.249Z,56.01
2023-05-24T23:18:25.142Z,56.25
2023-05-24T23:20:55.268Z,56.22
2023-05-24T23:23:25.659Z,56.47
2023-05-24T23:25:56.547Z,56.69
2023-05-24T23:28:27.398Z,56.70
2023-05-24T23:30:58.169Z,56.68
2023-05-24T23:33:27.620Z,56.92
2023-05-24T23:35:58.438Z,56.89
2023-05-24T23:38:27.260Z,57.02
2023-05-24T23:40:56.289Z,57.05
2023-05-24T23:43:26.500Z,57.06
2023-05-24T23:45:57.032Z,57.23
2023-05-24T23:48:26.146Z,57.47
2023-05-24T23:50:55.566Z,57.59
2023-05-24T23:53:26.244Z,57.74
2023-05-24T23:55:56.065Z,57.62
2023-05-24T23:58:27.635Z,57.75
